Time;durP1;ratioP1;P1;durP2;ratioP2;P2;SDS_P1;SDS_P2;PMS_P1;PMS_P2;Temp;Humidity;BMP_temperature;BMP_pressure;BME280_temperature;BME280_humidity;BME280_pressure;Samples;Min_cycle;Max_cycle;Signal;HPM_P1;HPM_P2
2023/06/16 00:01:25;;;;;;;;;;;21.10;60.10;;;;;;4992109;28;20426;-69
2023/06/16 00:03:51;;;;;;;;;;;21.00;60.00;;;;;;5007070;28;20397;-69
2023/06/16 00:06:19;;;;;;;;;;;21.00;60.20;;;;;;4988313;28;19975;-68
2023/06/16 00:08:48;;;;;;;;;;;21.00;60.30;;;;;;4974949;28;19910;-69
2023/06/16 00:11:14;;;;;;;;;;;21.00;60.30;;;;;;4968140;28;19921;-68
2023/06/16 00:13:40;;;;;;;;;;;20.90;60.50;;;;;;4968302;28;20496;-69
2023/06/16 00:16:06;;;;;;;;;;;20.90;60.60;;;;;;4973772;28;19948;-68
2023/06/16 00:18:31;;;;;;;;;;;20.90;60.50;;;;;;4987353;28;19914;-69
2023/06/16 00:21:00;;;;;;;;;;;20.90;60.50;;;;;;4987265;28;20020;-68
2023/06/16 00:23:26;;;;;;;;;;;20.80;60.60;;;;;;4987037;28;19922;-69
2023/06/16 00:25:52;;;;;;;;;;;20.80;60.60;;;;;;4986954;28;20571;-69
2023/06/16 00:28:17;;;;;;;;;;;20.80;60.50;;;;;;4985696;28;19914;-68
2023/06/16 00:30:43;;;;;;;;;;;20.80;60.70;;;;;;4986163;28;19921;-68
2023/06/16 00:33:10;;;;;;;;;;;20.70;60.60;;;;;;4987551;28;19968;-69
2023/06/16 00:35:35;;;;;;;;;;;20.70;60.70;;;;;;4986916;28;19921;-69
2023/06/16 00:38:01;;;;;;;;;;;20.70;60.60;;;;;;4987023;28;19914;-68
2023/06/16 00:40:26;;;;;;;;;;;20.70;60.90;;;;;;4987115;28;19920;-69
2023/06/16 00:42:53;;;;;;;;;;;20.60;60.90;;;;;;4980014;28;19917;-68
2023/06/16 00:45:19;;;;;;;;;;;20.60;60.90;;;;;;4985073;28;19922;-69
2023/06/16 00:47:44;;;;;;;;;;;20.60;61.00;;;;;;4986720;28;19967;-68
2023/06/16 00:50:11;;;;;;;;;;;20.50;61.00;;;;;;4985643;28;19914;-68
2023/06/16 00:52:37;;;;;;;;;;;20.50;61.00;;;;;;4986815;28;20784;-69
2023/06/16 00:55:03;;;;;;;;;;;20.50;61.00;;;;;;4986818;28;19913;-69
2023/06/16 00:57:29;;;;;;;;;;;20.50;61.10;;;;;;4986287;28;19921;-69
2023/06/16 00:59:55;;;;;;;;;;;20.40;61.00;;;;;;4986934;28;19914;-69
2023/06/16 01:02:20;;;;;;;;;;;20.40;61.00;;;;;;4986638;28;19924;-69
2023/06/16 01:04:47;;;;;;;;;;;20.40;61.40;;;;;;4986761;28;20549;-69
2023/06/16 01:07:15;;;;;;;;;;;20.30;61.20;;;;;;4986232;28;19971;-69
2023/06/16 01:09:48;;;;;;;;;;;20.30;61.20;;;;;;4967149;28;19917;-68
2023/06/16 01:12:23;;;;;;;;;;;20.30;61.20;;;;;;4992648;28;20038;-69
2023/06/16 01:14:56;;;;;;;;;;;20.30;61.20;;;;;;4986552;28;19917;-69
2023/06/16 01:17:22;;;;;;;;;;;20.20;61.30;;;;;;4986313;28;19910;-69
2023/06/16 01:19:59;;;;;;;;;;;20.20;61.30;;;;;;4986312;28;20286;-69
2023/06/16 01:22:31;;;;;;;;;;;20.20;61.30;;;;;;4986356;28;19936;-69
2023/06/16 01:24:59;;;;;;;;;;;20.10;61.50;;;;;;4986054;28;20558;-69
2023/06/16 01:27:25;;;;;;;;;;;20.10;61.30;;;;;;4986088;28;20668;-69
2023/06/16 01:29:51;;;;;;;;;;;20.10;61.60;;;;;;4986390;28;19910;-69
2023/06/16 01:32:18;;;;;;;;;;;20.10;61.40;;;;;;4984805;28;19953;-69
2023/06/16 01:34:45;;;;;;;;;;;20.10;61.40;;;;;;4986229;28;19921;-70
2023/06/16 01:37:10;;;;;;;;;;;20.00;61.40;;;;;;4986022;28;19914;-70
2023/06/16 01:39:36;;;;;;;;;;;20.00;61.60;;;;;;4971514;28;19957;-70
2023/06/16 01:42:02;;;;;;;;;;;20.00;61.60;;;;;;5039570;28;20055;-70
2023/06/16 01:44:28;;;;;;;;;;;19.90;61.80;;;;;;4989214;28;20012;-70
2023/06/16 01:46:55;;;;;;;;;;;19.90;62.30;;;;;;4988903;28;20358;-70
2023/06/16 01:49:21;;;;;;;;;;;19.90;61.80;;;;;;4989036;28;19910;-69
2023/06/16 01:51:47;;;;;;;;;;;19.80;61.70;;;;;;4984489;28;19922;-69
2023/06/16 01:54:12;;;;;;;;;;;19.80;61.90;;;;;;4983219;28;20327;-68
2023/06/16 01:56:38;;;;;;;;;;;19.80;61.80;;;;;;5034476;28;20014;-69
2023/06/16 01:59:03;;;;;;;;;;;19.80;61.70;;;;;;4989257;28;19920;-69
2023/06/16 02:01:30;;;;;;;;;;;19.80;61.90;;;;;;4992415;28;19910;-69
2023/06/16 02:04:15;;;;;;;;;;;19.80;62.00;;;;;;5007827;28;19977;-69
2023/06/16 02:06:50;;;;;;;;;;;19.70;62.00;;;;;;4969666;28;20707;-68
2023/06/16 02:09:16;;;;;;;;;;;19.70;61.90;;;;;;5016310;28;19918;-69
2023/06/16 02:11:42;;;;;;;;;;;19.70;61.80;;;;;;5091931;28;19912;-69
2023/06/16 02:14:08;;;;;;;;;;;19.70;62.10;;;;;;5010749;28;20036;-69
2023/06/16 02:16:42;;;;;;;;;;;19.70;62.20;;;;;;4988777;28;19971;-69
2023/06/16 02:19:14;;;;;;;;;;;19.60;62.10;;;;;;4988793;28;19914;-68
2023/06/16 02:21:43;;;;;;;;;;;19.60;62.10;;;;;;4987523;28;20486;-69
2023/06/16 02:24:09;;;;;;;;;;;19.60;62.30;;;;;;4988775;28;20422;-69
2023/06/16 02:26:34;;;;;;;;;;;19.60;62.30;;;;;;4988618;28;19925;-70
2023/06/16 02:29:00;;;;;;;;;;;19.60;62.30;;;;;;4988848;28;20004;-68
2023/06/16 02:31:27;;;;;;;;;;;19.50;62.40;;;;;;4988929;28;19952;-70
2023/06/16 02:33:52;;;;;;;;;;;19.50;62.40;;;;;;4988761;28;19920;-69
2023/06/16 02:36:18;;;;;;;;;;;19.50;62.50;;;;;;4988632;28;19914;-69
2023/06/16 02:38:45;;;;;;;;;;;19.50;62.40;;;;;;4988938;28;19917;-68
2023/06/16 02:41:11;;;;;;;;;;;19.50;62.40;;;;;;4987270;28;19920;-68
2023/06/16 02:43:36;;;;;;;;;;;19.40;62.60;;;;;;4983141;28;19914;-68
2023/06/16 02:46:02;;;;;;;;;;;19.40;62.40;;;;;;4987935;28;19924;-68
2023/06/16 02:48:27;;;;;;;;;;;19.40;62.60;;;;;;4988570;28;19910;-68
2023/06/16 02:50:53;;;;;;;;;;;19.40;62.70;;;;;;4988207;28;19968;-69
2023/06/16 02:53:19;;;;;;;;;;;19.40;62.60;;;;;;4987770;28;19913;-69
2023/06/16 02:55:46;;;;;;;;;;;19.40;62.80;;;;;;4988348;28;20649;-69
2023/06/16 02:58:12;;;;;;;;;;;19.30;62.80;;;;;;4988406;28;19920;-69
2023/06/16 03:00:38;;;;;;;;;;;19.30;62.80;;;;;;4988387;28;20013;-69
2023/06/16 03:03:04;;;;;;;;;;;19.30;62.80;;;;;;4988461;28;19918;-68
2023/06/16 03:05:31;;;;;;;;;;;19.30;62.80;;;;;;4987942;28;19917;-69
2023/06/16 03:07:56;;;;;;;;;;;19.20;62.90;;;;;;4986064;28;19969;-69
2023/06/16 03:10:22;;;;;;;;;;;19.20;62.90;;;;;;4988606;28;20359;-69
2023/06/16 03:12:47;;;;;;;;;;;19.20;63.10;;;;;;4997449;28;20595;-69
2023/06/16 03:15:13;;;;;;;;;;;19.10;62.90;;;;;;4990018;28;19918;-69
2023/06/16 03:17:39;;;;;;;;;;;19.10;63.00;;;;;;4969780;28;19980;-68
2023/06/16 03:20:05;;;;;;;;;;;19.10;63.20;;;;;;4968558;28;20692;-68
2023/06/16 03:22:30;;;;;;;;;;;19.10;63.30;;;;;;4987811;28;20333;-68
2023/06/16 03:25:02;;;;;;;;;;;19.10;63.20;;;;;;4987769;28;19976;-68
2023/06/16 03:27:30;;;;;;;;;;;19.00;63.30;;;;;;4988038;28;19917;-68
2023/06/16 03:29:56;;;;;;;;;;;19.00;63.20;;;;;;4987912;28;20401;-69
2023/06/16 03:32:22;;;;;;;;;;;19.00;63.30;;;;;;4986435;28;19915;-68
2023/06/16 03:34:48;;;;;;;;;;;19.00;63.30;;;;;;4993347;28;19941;-69
2023/06/16 03:37:14;;;;;;;;;;;19.00;63.30;;;;;;5088027;28;19954;-68
2023/06/16 03:39:40;;;;;;;;;;;18.90;63.60;;;;;;4987822;28;19956;-69
2023/06/16 03:42:06;;;;;;;;;;;18.90;63.40;;;;;;4987487;28;19975;-69
2023/06/16 03:44:31;;;;;;;;;;;18.90;63.60;;;;;;4987383;28;19993;-68
2023/06/16 03:46:57;;;;;;;;;;;18.90;63.60;;;;;;4985969;28;19922;-69
2023/06/16 03:49:22;;;;;;;;;;;18.90;63.70;;;;;;4987574;28;19919;-68
2023/06/16 03:51:48;;;;;;;;;;;18.90;63.50;;;;;;4987615;28;19960;-70
2023/06/16 03:54:13;;;;;;;;;;;18.90;63.70;;;;;;4987706;28;19922;-68
2023/06/16 03:56:39;;;;;;;;;;;18.80;63.70;;;;;;4987589;28;19917;-69
2023/06/16 03:59:04;;;;;;;;;;;18.80;63.70;;;;;;4986440;28;19914;-68
2023/06/16 04:01:31;;;;;;;;;;;18.80;63.90;;;;;;4987728;28;19914;-69
2023/06/16 04:03:57;;;;;;;;;;;18.80;63.90;;;;;;4987378;28;19960;-69
2023/06/16 04:06:22;;;;;;;;;;;18.80;63.70;;;;;;4994346;28;19968;-69
2023/06/16 04:08:48;;;;;;;;;;;18.80;63.80;;;;;;4993813;28;20012;-69
2023/06/16 04:11:15;;;;;;;;;;;18.80;63.70;;;;;;4986165;28;19910;-69
2023/06/16 04:13:41;;;;;;;;;;;18.80;63.80;;;;;;4987836;28;20008;-69
2023/06/16 04:16:06;;;;;;;;;;;18.80;63.80;;;;;;4987382;28;20202;-69
2023/06/16 04:18:32;;;;;;;;;;;18.70;63.80;;;;;;4987386;28;19975;-68
2023/06/16 04:20:57;;;;;;;;;;;18.70;63.90;;;;;;4987199;28;19913;-68
2023/06/16 04:23:23;;;;;;;;;;;18.70;64.10;;;;;;4987156;28;20588;-69
2023/06/16 04:25:48;;;;;;;;;;;18.80;64.30;;;;;;4986835;28;20420;-68
2023/06/16 04:28:14;;;;;;;;;;;18.70;64.20;;;;;;4987253;28;19916;-68
2023/06/16 04:30:40;;;;;;;;;;;18.70;64.10;;;;;;4987227;28;19983;-69
2023/06/16 04:33:06;;;;;;;;;;;18.70;64.10;;;;;;4987250;28;19914;-69
2023/06/16 04:35:33;;;;;;;;;;;18.70;64.20;;;;;;4985236;28;19941;-69
2023/06/16 04:37:59;;;;;;;;;;;18.70;64.20;;;;;;4987090;28;19925;-69
2023/06/16 04:40:25;;;;;;;;;;;18.70;64.20;;;;;;4986943;28;19913;-68
2023/06/16 04:42:50;;;;;;;;;;;18.70;64.40;;;;;;4979952;28;19972;-68
2023/06/16 04:45:16;;;;;;;;;;;18.70;64.40;;;;;;4986824;28;20337;-69
2023/06/16 04:47:42;;;;;;;;;;;18.70;64.40;;;;;;4987026;28;19920;-68
2023/06/16 04:50:09;;;;;;;;;;;18.70;64.40;;;;;;4986834;28;20029;-68
2023/06/16 04:52:38;;;;;;;;;;;18.70;64.40;;;;;;4986818;28;20012;-68
2023/06/16 04:55:04;;;;;;;;;;;18.70;64.50;;;;;;4986897;28;20566;-68
2023/06/16 04:57:31;;;;;;;;;;;18.70;64.40;;;;;;4985131;28;19967;-68
2023/06/16 04:59:57;;;;;;;;;;;18.70;64.40;;;;;;4986844;28;20678;-69
2023/06/16 05:02:23;;;;;;;;;;;18.60;64.50;;;;;;4986760;28;19914;-69
2023/06/16 05:04:48;;;;;;;;;;;18.70;64.50;;;;;;4986103;28;19918;-68
2023/06/16 05:07:14;;;;;;;;;;;18.70;64.60;;;;;;4986075;28;20048;-69
2023/06/16 05:09:39;;;;;;;;;;;18.70;64.60;;;;;;4967583;28;19960;-69
2023/06/16 05:12:08;;;;;;;;;;;18.70;64.60;;;;;;4967410;28;19914;-69
2023/06/16 05:14:34;;;;;;;;;;;18.70;64.60;;;;;;4967185;28;19968;-69
2023/06/16 05:17:00;;;;;;;;;;;18.70;64.70;;;;;;5057908;28;19912;-69
2023/06/16 05:19:25;;;;;;;;;;;18.60;64.60;;;;;;5087304;28;19912;-69
2023/06/16 05:21:51;;;;;;;;;;;18.70;64.70;;;;;;5014452;28;19910;-68
2023/06/16 05:24:16;;;;;;;;;;;18.60;64.70;;;;;;4986383;28;19926;-68
2023/06/16 05:26:42;;;;;;;;;;;18.70;64.60;;;;;;5015179;28;19920;-69
2023/06/16 05:29:07;;;;;;;;;;;18.60;64.70;;;;;;5088585;28;19912;-68
2023/06/16 05:31:33;;;;;;;;;;;18.70;64.70;;;;;;5023161;28;20591;-69
2023/06/16 05:33:59;;;;;;;;;;;18.70;64.70;;;;;;4986255;28;19921;-69
2023/06/16 05:36:24;;;;;;;;;;;18.70;64.80;;;;;;4985965;28;20032;-68
2023/06/16 05:38:51;;;;;;;;;;;18.70;64.80;;;;;;4986389;28;19914;-68
2023/06/16 05:41:17;;;;;;;;;;;18.70;64.70;;;;;;4986159;28;20458;-68
2023/06/16 05:43:42;;;;;;;;;;;18.70;64.70;;;;;;4986100;28;19914;-68
2023/06/16 05:46:08;;;;;;;;;;;18.70;64.80;;;;;;4985920;28;19971;-68
2023/06/16 05:48:33;;;;;;;;;;;18.70;64.90;;;;;;4986183;28;19983;-68
2023/06/16 05:50:59;;;;;;;;;;;18.70;64.90;;;;;;4984697;28;19940;-68
2023/06/16 05:53:25;;;;;;;;;;;18.70;64.90;;;;;;4984613;28;19949;-69
2023/06/16 05:55:50;;;;;;;;;;;18.70;64.90;;;;;;4985761;28;19920;-68
2023/06/16 05:58:16;;;;;;;;;;;18.70;65.00;;;;;;4986039;28;19914;-68
2023/06/16 06:00:42;;;;;;;;;;;18.70;64.90;;;;;;4986093;28;19914;-69
2023/06/16 06:03:08;;;;;;;;;;;18.80;64.90;;;;;;4998925;28;20346;-68
2023/06/16 06:05:33;;;;;;;;;;;18.80;64.80;;;;;;4992718;28;19918;-68
2023/06/16 06:07:59;;;;;;;;;;;18.80;64.80;;;;;;4979411;28;19914;-68
2023/06/16 06:10:24;;;;;;;;;;;18.80;64.70;;;;;;4966543;28;20268;-68
2023/06/16 06:12:50;;;;;;;;;;;18.80;64.80;;;;;;4966590;28;20349;-68
2023/06/16 06:15:17;;;;;;;;;;;18.80;64.70;;;;;;4966606;28;19914;-69
2023/06/16 06:17:43;;;;;;;;;;;18.80;64.80;;;;;;4984460;28;20377;-69
2023/06/16 06:20:09;;;;;;;;;;;18.80;64.80;;;;;;4985116;28;19921;-68
2023/06/16 06:22:35;;;;;;;;;;;18.80;64.70;;;;;;4984922;28;19925;-68
2023/06/16 06:25:00;;;;;;;;;;;18.90;64.80;;;;;;4984923;28;19936;-69
2023/06/16 06:27:26;;;;;;;;;;;18.90;64.70;;;;;;4986018;28;19917;-68
2023/06/16 06:29:51;;;;;;;;;;;18.90;64.60;;;;;;4988758;28;19936;-68
2023/06/16 06:32:17;;;;;;;;;;;18.90;64.60;;;;;;4988732;28;19925;-68
2023/06/16 06:34:43;;;;;;;;;;;18.90;64.50;;;;;;4989005;28;20068;-68
2023/06/16 06:37:16;;;;;;;;;;;18.90;64.50;;;;;;4988778;28;19949;-68
2023/06/16 06:39:42;;;;;;;;;;;18.90;65.20;;;;;;4969578;28;19911;-68
2023/06/16 06:42:07;;;;;;;;;;;18.90;64.40;;;;;;4971695;28;19968;-68
2023/06/16 06:44:33;;;;;;;;;;;18.90;64.30;;;;;;4988740;28;19914;-69
2023/06/16 06:46:58;;;;;;;;;;;19.00;64.40;;;;;;4988506;28;20393;-69
2023/06/16 06:49:24;;;;;;;;;;;19.00;64.30;;;;;;4988577;28;19953;-68
2023/06/16 06:51:50;;;;;;;;;;;19.00;64.20;;;;;;4988813;28;19915;-68
2023/06/16 06:54:16;;;;;;;;;;;19.00;64.20;;;;;;4988618;28;19917;-68
2023/06/16 06:56:41;;;;;;;;;;;19.00;64.10;;;;;;4988441;28;19914;-69
2023/06/16 06:59:07;;;;;;;;;;;19.10;64.10;;;;;;4988658;28;19918;-68
2023/06/16 07:01:32;;;;;;;;;;;19.10;64.10;;;;;;4988663;28;20386;-69
2023/06/16 07:03:58;;;;;;;;;;;19.10;64.00;;;;;;4987041;28;20005;-69
2023/06/16 07:06:23;;;;;;;;;;;19.10;64.00;;;;;;4987995;28;19925;-68
2023/06/16 07:08:50;;;;;;;;;;;19.10;63.90;;;;;;4975328;28;20008;-68
2023/06/16 07:11:15;;;;;;;;;;;19.20;63.90;;;;;;4967671;28;19967;-69
2023/06/16 07:13:41;;;;;;;;;;;19.10;64.40;;;;;;4969140;28;19910;-69
2023/06/16 07:16:06;;;;;;;;;;;19.20;63.70;;;;;;4974667;28;19914;-69
2023/06/16 07:18:32;;;;;;;;;;;19.20;63.70;;;;;;4988692;28;19949;-69
2023/06/16 07:20:57;;;;;;;;;;;19.20;63.70;;;;;;4986782;28;20009;-68
2023/06/16 07:23:25;;;;;;;;;;;19.20;63.60;;;;;;4988267;28;20367;-69
2023/06/16 07:25:51;;;;;;;;;;;19.20;63.50;;;;;;5002328;28;19917;-68
2023/06/16 07:28:17;;;;;;;;;;;19.20;63.50;;;;;;4988254;28;19917;-69
2023/06/16 07:30:42;;;;;;;;;;;19.30;63.40;;;;;;4988302;28;20005;-69
2023/06/16 07:33:08;;;;;;;;;;;19.30;63.40;;;;;;4988336;28;19917;-68
2023/06/16 07:35:34;;;;;;;;;;;19.30;63.30;;;;;;5013387;28;19916;-68
2023/06/16 07:38:00;;;;;;;;;;;19.30;63.30;;;;;;5054330;28;19921;-68
2023/06/16 07:40:25;;;;;;;;;;;19.30;63.30;;;;;;4987602;28;19999;-69
2023/06/16 07:42:51;;;;;;;;;;;19.30;63.20;;;;;;4987219;28;19913;-68
2023/06/16 07:45:17;;;;;;;;;;;19.30;63.00;;;;;;4987665;28;19939;-68
2023/06/16 07:47:43;;;;;;;;;;;19.40;63.20;;;;;;4987643;28;19963;-68
2023/06/16 07:50:10;;;;;;;;;;;19.40;63.10;;;;;;4987769;28;19918;-69
2023/06/16 07:52:36;;;;;;;;;;;19.40;63.00;;;;;;4988020;28;20359;-69
2023/06/16 07:55:02;;;;;;;;;;;19.50;63.00;;;;;;4988014;28;19910;-68
2023/06/16 07:57:27;;;;;;;;;;;19.50;62.80;;;;;;4987593;28;19991;-68
2023/06/16 07:59:53;;;;;;;;;;;19.50;62.50;;;;;;4997949;28;20483;-68
2023/06/16 08:02:18;;;;;;;;;;;19.50;61.70;;;;;;4988587;28;19913;-68
2023/06/16 08:04:43;;;;;;;;;;;19.50;62.60;;;;;;4987620;28;20005;-68
2023/06/16 08:07:09;;;;;;;;;;;19.60;62.60;;;;;;4987392;28;20009;-69
2023/06/16 08:09:35;;;;;;;;;;;19.60;62.60;;;;;;4968115;28;19940;-68
2023/06/16 08:12:00;;;;;;;;;;;19.60;62.30;;;;;;4968289;28;19921;-69
2023/06/16 08:14:27;;;;;;;;;;;19.60;62.30;;;;;;4968136;28;20346;-68
2023/06/16 08:16:53;;;;;;;;;;;19.70;62.20;;;;;;4979884;28;19949;-69
2023/06/16 08:19:18;;;;;;;;;;;19.70;62.00;;;;;;4987464;28;19967;-68
2023/06/16 08:21:44;;;;;;;;;;;19.70;62.00;;;;;;4986091;28;20305;-68
2023/06/16 08:24:09;;;;;;;;;;;19.70;61.90;;;;;;4986108;28;19947;-68
2023/06/16 08:26:35;;;;;;;;;;;19.80;61.70;;;;;;4987078;28;19918;-68
2023/06/16 08:29:00;;;;;;;;;;;19.80;61.70;;;;;;4987302;28;19921;-68
2023/06/16 08:31:27;;;;;;;;;;;19.80;61.30;;;;;;4987366;28;20012;-69
2023/06/16 08:33:54;;;;;;;;;;;19.90;61.60;;;;;;4987161;28;19917;-69
2023/06/16 08:36:21;;;;;;;;;;;19.90;60.70;;;;;;4986608;28;19960;-68
2023/06/16 08:38:46;;;;;;;;;;;19.90;61.40;;;;;;4987008;28;19913;-68
2023/06/16 08:41:14;;;;;;;;;;;19.90;61.00;;;;;;4986810;28;20013;-69
2023/06/16 08:43:41;;;;;;;;;;;20.00;61.20;;;;;;4986674;28;20020;-68
2023/06/16 08:46:08;;;;;;;;;;;20.00;61.20;;;;;;4986518;28;19918;-68
2023/06/16 08:48:35;;;;;;;;;;;20.00;59.70;;;;;;4986824;28;19949;-68
2023/06/16 08:51:02;;;;;;;;;;;20.00;59.60;;;;;;4985809;28;19917;-69
2023/06/16 08:53:31;;;;;;;;;;;20.00;60.80;;;;;;4987137;28;19914;-69
2023/06/16 08:55:58;;;;;;;;;;;20.10;60.80;;;;;;4986546;28;20288;-68
2023/06/16 08:58:24;;;;;;;;;;;20.10;60.70;;;;;;4986883;28;19913;-68
2023/06/16 09:00:50;;;;;;;;;;;20.10;60.50;;;;;;4986896;28;19914;-68
2023/06/16 09:03:17;;;;;;;;;;;20.20;60.50;;;;;;4986643;28;19913;-68
2023/06/16 09:05:42;;;;;;;;;;;20.20;60.10;;;;;;4986277;28;19960;-68
2023/06/16 09:08:08;;;;;;;;;;;20.20;59.10;;;;;;4979101;28;19949;-68
2023/06/16 09:10:34;;;;;;;;;;;20.30;60.00;;;;;;4967251;28;20359;-69
2023/06/16 09:13:00;;;;;;;;;;;20.30;59.90;;;;;;4981930;28;20594;-68
2023/06/16 09:15:26;;;;;;;;;;;20.30;59.80;;;;;;4967400;28;19976;-68
2023/06/16 09:17:52;;;;;;;;;;;20.40;60.20;;;;;;4986464;28;20562;-68
2023/06/16 09:20:18;;;;;;;;;;;20.40;59.30;;;;;;4986367;28;19914;-68
2023/06/16 09:22:59;;;;;;;;;;;20.40;59.70;;;;;;5000881;28;19944;-68
2023/06/16 09:25:24;;;;;;;;;;;20.50;58.80;;;;;;4986080;28;19910;-68
2023/06/16 09:27:54;;;;;;;;;;;20.50;59.00;;;;;;4986337;28;19914;-68
2023/06/16 09:30:20;;;;;;;;;;;20.60;59.60;;;;;;4986668;28;19948;-68
2023/06/16 09:32:50;;;;;;;;;;;20.60;59.30;;;;;;4986294;28;19953;-68
2023/06/16 09:35:16;;;;;;;;;;;20.60;58.80;;;;;;5061529;28;19942;-68
2023/06/16 09:37:42;;;;;;;;;;;20.70;59.60;;;;;;5066558;28;19910;-68
2023/06/16 09:40:09;;;;;;;;;;;20.70;58.50;;;;;;4985850;28;20008;-68
2023/06/16 09:42:36;;;;;;;;;;;20.70;59.20;;;;;;4985116;28;19913;-68
2023/06/16 09:45:08;;;;;;;;;;;20.80;58.20;;;;;;4985652;28;19914;-68
2023/06/16 09:47:36;;;;;;;;;;;20.80;58.60;;;;;;4985452;28;19921;-68
2023/06/16 09:50:01;;;;;;;;;;;20.90;58.80;;;;;;4986115;28;20314;-68
2023/06/16 09:52:27;;;;;;;;;;;20.90;58.70;;;;;;4985897;28;19918;-68
2023/06/16 09:54:54;;;;;;;;;;;21.00;58.70;;;;;;4986280;28;19979;-68
2023/06/16 09:57:20;;;;;;;;;;;21.00;58.60;;;;;;4986055;28;19917;-68
2023/06/16 09:59:45;;;;;;;;;;;21.10;58.40;;;;;;4986137;28;19914;-68
2023/06/16 10:02:12;;;;;;;;;;;21.20;58.50;;;;;;4987026;28;20275;-69
2023/06/16 10:04:38;;;;;;;;;;;21.20;58.20;;;;;;5001575;28;20000;-68
2023/06/16 10:07:06;;;;;;;;;;;21.30;58.10;;;;;;4989341;28;20695;-68
2023/06/16 10:09:50;;;;;;;;;;;21.30;58.10;;;;;;4970464;28;19971;-68
2023/06/16 10:12:17;;;;;;;;;;;21.40;58.00;;;;;;4969929;28;19956;-67
2023/06/16 10:14:43;;;;;;;;;;;21.50;57.80;;;;;;4969871;28;19944;-68
2023/06/16 10:17:09;;;;;;;;;;;21.50;58.10;;;;;;4984146;28;19997;-68
2023/06/16 10:19:36;;;;;;;;;;;21.60;58.30;;;;;;5068174;28;20323;-68
2023/06/16 10:22:02;;;;;;;;;;;21.70;57.90;;;;;;4998291;28;19918;-67
2023/06/16 10:24:28;;;;;;;;;;;21.70;58.30;;;;;;4988892;28;19913;-68
2023/06/16 10:26:53;;;;;;;;;;;21.80;58.40;;;;;;4987729;28;19922;-68
2023/06/16 10:29:20;;;;;;;;;;;21.90;58.00;;;;;;4987835;28;19921;-67
2023/06/16 10:31:51;;;;;;;;;;;22.00;58.40;;;;;;4988570;28;19917;-68
2023/06/16 10:34:19;;;;;;;;;;;22.00;58.30;;;;;;4988671;28;20761;-68
2023/06/16 10:36:45;;;;;;;;;;;22.10;58.10;;;;;;4988224;28;19998;-67
2023/06/16 10:39:16;;;;;;;;;;;22.20;58.10;;;;;;4987681;28;19991;-68
2023/06/16 10:41:54;;;;;;;;;;;22.30;58.40;;;;;;4980179;28;20314;-68
2023/06/16 10:44:23;;;;;;;;;;;22.40;58.10;;;;;;4981106;28;19952;-68
2023/06/16 10:47:07;;;;;;;;;;;22.50;58.30;;;;;;4988465;28;19929;-68
2023/06/16 10:49:32;;;;;;;;;;;22.50;57.80;;;;;;4988785;28;20664;-68
2023/06/16 10:51:58;;;;;;;;;;;22.70;57.80;;;;;;4988924;28;19957;-67
2023/06/16 10:54:33;;;;;;;;;;;22.70;58.00;;;;;;4988847;28;20542;-67
2023/06/16 10:57:05;;;;;;;;;;;22.80;57.60;;;;;;4988731;28;19941;-68
2023/06/16 10:59:51;;;;;;;;;;;23.00;57.60;;;;;;5084467;28;19965;-67
2023/06/16 11:02:23;;;;;;;;;;;23.10;58.00;;;;;;5012661;28;19921;-67
2023/06/16 11:05:22;;;;;;;;;;;23.20;57.90;;;;;;5001629;28;20370;-67
2023/06/16 11:07:57;;;;;;;;;;;23.30;57.90;;;;;;4975653;28;20003;-67
2023/06/16 11:10:23;;;;;;;;;;;23.40;58.00;;;;;;4969041;28;19922;-67
2023/06/16 11:12:48;;;;;;;;;;;23.60;57.80;;;;;;4969080;28;19918;-67
2023/06/16 11:15:14;;;;;;;;;;;23.70;57.70;;;;;;4966766;28;20274;-67
2023/06/16 11:17:41;;;;;;;;;;;23.70;57.20;;;;;;4986950;28;20426;-67
2023/06/16 11:20:08;;;;;;;;;;;23.90;56.70;;;;;;4988360;28;19972;-67
2023/06/16 11:22:34;;;;;;;;;;;23.90;57.70;;;;;;5001976;28;19921;-67
2023/06/16 11:25:00;;;;;;;;;;;24.00;57.70;;;;;;4986824;28;19924;-67
2023/06/16 11:27:26;;;;;;;;;;;24.10;57.70;;;;;;4994196;28;19928;-67
2023/06/16 11:29:53;;;;;;;;;;;24.20;57.50;;;;;;4987085;28;19914;-67
2023/06/16 11:32:32;;;;;;;;;;;24.30;57.50;;;;;;4985838;28;19950;-67
2023/06/16 11:34:58;;;;;;;;;;;24.40;57.50;;;;;;4986651;28;19967;-67
2023/06/16 11:37:42;;;;;;;;;;;24.50;57.60;;;;;;4986234;28;20383;-67
2023/06/16 11:40:08;;;;;;;;;;;24.50;57.40;;;;;;4987128;28;19914;-67
2023/06/16 11:42:33;;;;;;;;;;;24.70;57.30;;;;;;4986634;28;19986;-67
2023/06/16 11:44:59;;;;;;;;;;;24.70;57.30;;;;;;4986444;28;19914;-67
2023/06/16 11:47:25;;;;;;;;;;;24.80;57.20;;;;;;4986209;28;19917;-67
2023/06/16 11:49:51;;;;;;;;;;;24.90;57.30;;;;;;4987543;28;20259;-67
2023/06/16 11:52:16;;;;;;;;;;;25.00;57.30;;;;;;4987878;28;19910;-67
2023/06/16 11:54:42;;;;;;;;;;;25.00;57.60;;;;;;4987836;28;19996;-67
2023/06/16 11:57:07;;;;;;;;;;;25.10;57.50;;;;;;4987652;28;19917;-67
2023/06/16 11:59:33;;;;;;;;;;;25.20;57.40;;;;;;4986574;28;19915;-67
2023/06/16 12:02:01;;;;;;;;;;;25.20;57.50;;;;;;4996670;28;20008;-67
2023/06/16 12:04:27;;;;;;;;;;;25.30;57.60;;;;;;5003978;28;19914;-67
2023/06/16 12:06:56;;;;;;;;;;;25.30;57.50;;;;;;4987306;28;19925;-67
2023/06/16 12:09:22;;;;;;;;;;;25.40;57.50;;;;;;4970020;28;20427;-67
2023/06/16 12:11:48;;;;;;;;;;;25.50;57.50;;;;;;4966481;28;19914;-67
2023/06/16 12:14:20;;;;;;;;;;;25.60;57.30;;;;;;4967869;28;19914;-67
2023/06/16 12:16:50;;;;;;;;;;;25.60;57.20;;;;;;4978791;28;19913;-67
2023/06/16 12:19:19;;;;;;;;;;;25.70;57.20;;;;;;4987352;28;19952;-67
2023/06/16 12:21:48;;;;;;;;;;;25.60;57.20;;;;;;4987054;28;20353;-67
2023/06/16 12:24:14;;;;;;;;;;;25.60;57.50;;;;;;4987209;28;19926;-67
2023/06/16 12:26:40;;;;;;;;;;;25.50;57.50;;;;;;4986977;28;20460;-67
2023/06/16 12:29:10;;;;;;;;;;;25.50;57.70;;;;;;4987548;28;19910;-67
2023/06/16 12:31:36;;;;;;;;;;;25.60;57.80;;;;;;4987411;28;19976;-67
2023/06/16 12:34:02;;;;;;;;;;;25.60;57.80;;;;;;4987089;28;19914;-67
2023/06/16 12:36:27;;;;;;;;;;;25.70;57.90;;;;;;4985578;28;19940;-67
2023/06/16 12:38:58;;;;;;;;;;;25.80;57.80;;;;;;4973261;28;19949;-67
2023/06/16 12:41:26;;;;;;;;;;;25.90;57.80;;;;;;4970340;28;19914;-67
2023/06/16 12:43:52;;;;;;;;;;;25.80;57.70;;;;;;5074021;28;19908;-68
2023/06/16 12:46:18;;;;;;;;;;;25.80;57.90;;;;;;5049042;28;20406;-67
2023/06/16 12:48:44;;;;;;;;;;;25.90;57.60;;;;;;4986726;28;19936;-67
2023/06/16 12:51:12;;;;;;;;;;;26.00;57.70;;;;;;4986924;28;20350;-67
2023/06/16 12:53:39;;;;;;;;;;;26.00;57.30;;;;;;4986885;28;20336;-67
2023/06/16 12:56:06;;;;;;;;;;;26.00;57.30;;;;;;4985146;28;20268;-67
2023/06/16 12:58:32;;;;;;;;;;;26.10;57.20;;;;;;4986835;28;19917;-67
2023/06/16 13:00:57;;;;;;;;;;;26.20;57.50;;;;;;4987063;28;19920;-67
2023/06/16 13:03:23;;;;;;;;;;;26.30;57.40;;;;;;4984971;28;20442;-67
2023/06/16 13:05:48;;;;;;;;;;;26.30;57.20;;;;;;4985719;28;19921;-67
2023/06/16 13:08:14;;;;;;;;;;;26.30;57.10;;;;;;4977750;28;19914;-67
2023/06/16 13:10:39;;;;;;;;;;;26.20;56.90;;;;;;4966203;28;19964;-67
2023/06/16 13:13:05;;;;;;;;;;;26.30;57.00;;;;;;4966328;28;19967;-67
2023/06/16 13:15:30;;;;;;;;;;;26.40;56.90;;;;;;4967828;28;19918;-68
2023/06/16 13:17:56;;;;;;;;;;;26.60;56.80;;;;;;4986602;28;19946;-67
2023/06/16 13:20:21;;;;;;;;;;;26.60;56.60;;;;;;4986581;28;20389;-67
2023/06/16 13:22:47;;;;;;;;;;;26.60;56.40;;;;;;5053860;28;19924;-67
2023/06/16 13:25:12;;;;;;;;;;;26.70;56.30;;;;;;5074297;28;20366;-67
2023/06/16 13:27:38;;;;;;;;;;;26.80;56.50;;;;;;5088569;28;19918;-67
2023/06/16 13:30:04;;;;;;;;;;;26.70;56.10;;;;;;5086791;28;19919;-67
2023/06/16 13:32:29;;;;;;;;;;;26.70;56.00;;;;;;4986542;28;20448;-67
2023/06/16 13:34:55;;;;;;;;;;;26.80;56.40;;;;;;4985095;28;19914;-67
2023/06/16 13:37:21;;;;;;;;;;;26.90;56.50;;;;;;4985474;28;19968;-67
2023/06/16 13:39:46;;;;;;;;;;;26.90;56.00;;;;;;4985051;28;19913;-67
2023/06/16 13:42:12;;;;;;;;;;;27.00;55.90;;;;;;4979463;28;19963;-67
2023/06/16 13:44:37;;;;;;;;;;;27.10;56.10;;;;;;4986306;28;19920;-67
2023/06/16 13:47:03;;;;;;;;;;;27.10;56.50;;;;;;4986008;28;19917;-67
2023/06/16 13:49:28;;;;;;;;;;;27.30;56.00;;;;;;4986264;28;19914;-67
2023/06/16 13:51:55;;;;;;;;;;;27.40;55.70;;;;;;4984335;28;20531;-67
2023/06/16 13:54:20;;;;;;;;;;;27.40;54.80;;;;;;4971746;28;19952;-67
2023/06/16 13:56:47;;;;;;;;;;;27.50;54.80;;;;;;5007761;28;19920;-67
2023/06/16 13:59:13;;;;;;;;;;;27.50;54.70;;;;;;5087285;28;19915;-67
2023/06/16 14:01:38;;;;;;;;;;;27.70;54.60;;;;;;5018912;28;19918;-68
2023/06/16 14:04:05;;;;;;;;;;;27.70;54.20;;;;;;4996686;28;19913;-67
2023/06/16 14:06:30;;;;;;;;;;;27.80;53.60;;;;;;4985343;28;20000;-67
2023/06/16 14:08:56;;;;;;;;;;;27.90;53.20;;;;;;4971578;28;19997;-67
2023/06/16 14:11:22;;;;;;;;;;;27.80;54.10;;;;;;4966177;28;19914;-67
2023/06/16 14:13:47;;;;;;;;;;;27.80;53.90;;;;;;4966123;28;19991;-68